Alajuela, Costa Rica

2:20 AM CST on February 13, 2016 (GMT -0600)
Pozos de Santa Ana | | Change Station
CLOSE
Current Station
Personal Weather Station
Location: San Jose, San Jose
Elevation: 2825 ft
Nearby Weather Stations

Elev 2825 ft 9.96 °N, 84.19 °W | Updated 15 seconds ago

Clear
Clear
69.4 °F
Feels Like 69.4 °F
N
7.6
Wind Variable Wind from ENE
Gusts 12.3 mph

Today
High -- | Low -- °F
--% Chance of Precip.
Yesterday
High -- | Low -- °F
Precip. -- in
Pressure 29.96 in
Visibility -9999.0 miles
Clouds
Dew Point 63 °F
Humidity 81%
Rainfall 0.00 in
Snow Depth Not available.
5:57 AM 5:44 PM
Waxing Crescent, 28% visible
METAR MROC 130800Z 10017G27KT CAVOK 20/14 A2996 NOSIG
Pressure 29.96 in
Visibility -9999.0 miles
Clouds
Dew Point 63 °F
Humidity 81%
Rainfall 0.00 in
Snow Depth Not available.
5:57 AM 5:44 PM
Waxing Crescent, 28% visible
METAR MROC 130800Z 10017G27KT CAVOK 20/14 A2996 NOSIG

10-Day Weather Forecast

No radar image for this location.
×

Almanac

Astronomy

Feb. 13, 2016 Rise Set
Actual Time
Civil Twilight
Nautical Twilight
Astronomical Twilight
Moon
Length of Visible Light
Length of Day
Tomorrow will be .
, % of the Moon is Illuminated

Today's Extremes

Country Highs Country Lows

Community

WunderPhotos

Upload Photos

1,892,536 photos uploaded!

WunderBlog® & News

Nearby

Air Quality

  Air Quality AQ Index Pollutant
Not available.

Snow Depth

Station Depth Elevation

Earthquake Activity

City Distance Mag. Time & Date
Minimum magnitude displayed is 2.5.

Coastal Water Temperatures

Place Temperature

Stations

Nearby Weather Stations

Station Location Temp. Windchill Dew Point Humidity Wind Precip. Elev Updated Type